Terminal Aerodrome Forecast
Issued by NWS Raleigh/Durham, NC

Home | Current Version | Previous Version | Text Only | Print | Product List | Glossary On
Versions: 1 2 3 4 5 6 7 8 9 10 11 12
000
FTUS42 KRAH 122323
TAFGSO
TAF
KGSO 122323Z 1300/1324 31014G28KT P6SM SCT050
     FM130400 32015G26KT P6SM FEW050
     FM130700 31012G23KT P6SM SKC
     FM131100 31009G18KT P6SM SKC
     FM131500 26009G16KT P6SM SKC
     FM132200 22008KT P6SM SCT100=

USA.gov is the U.S. government's official web portal to all federal, state and local government web resources and services.